This is the latest recevied weather packets stored in our database for station/object XE3JAR-13. If no packets are shown the sender has not sent any weather packets the latest 1 day(s).
| Time | Temp. | Humidity | Pressure | Rain* | Wind** | Luminosity | Snow |
|---|---|---|---|---|---|---|---|
| 1778103836 | 41.11° C | 57% | 1010.5 hPa | - | - | - | - |
| 1778102355 | 41.11° C | 55% | 1010.8 hPa | - | - | - | - |
| 1778099319 | 46.11° C | 49% | 1011.5 hPa | - | - | - | - |
| 1778098714 | 46.11° C | 49% | 1011.5 hPa | - | - | - | - |
| 1778097494 | 46.11° C | 49% | 1011.8 hPa | - | - | - | - |
| 1778094137 | 46.11° C | 49% | 1012.9 hPa | - | - | - | - |
| 1778092934 | 45° C | 50% | 1013.6 hPa | - | - | - | - |
| 1778090715 | 42.78° C | 53% | 1013.9 hPa | - | - | - | - |
| 1778088594 | 42.78° C | 52% | 1014.2 hPa | - | - | - | - |
| 1778088282 | 43.89° C | 52% | 1014.2 hPa | - | - | - | - |
| 1778087373 | 42.78° C | 53% | 1014.2 hPa | - | - | - | - |
| 1778086162 | 42.78° C | 52% | 1014.6 hPa | - | - | - | - |
| 1778085856 | 42.78° C | 53% | 1014.6 hPa | - | - | - | - |
| 1778084030 | 42.22° C | 54% | 1014.9 hPa | - | - | - | - |
| 1778083722 | 42.22° C | 54% | 1014.9 hPa | - | - | - | - |
| 1778083421 | 42.22° C | 55% | 1014.9 hPa | - | - | - | - |
| 1778082515 | 38.89° C | 59% | 1015.2 hPa | - | - | - | - |
| 1778082215 | 38.89° C | 59% | 1015.2 hPa | - | - | - | - |
| 1778081305 | 37.78° C | 63% | 1014.9 hPa | - | - | - | - |
| 1778080996 | 37.22° C | 63% | 1014.9 hPa | - | - | - | - |
| 1778080696 | 37.22° C | 65% | 1014.9 hPa | - | - | - | - |
| 1778079792 | 37.22° C | 67% | 1014.9 hPa | - | - | - | - |
| 1778079189 | 37.22° C | 67% | 1015.2 hPa | - | - | - | - |
| 1778078276 | 35° C | 71% | 1015.2 hPa | - | - | - | - |
| 1778077974 | 33.89° C | 72% | 1014.9 hPa | - | - | - | - |
* Rain since midnight (hover to see other rain measurements)
** Current wind speed in m/s (hover to see current wind gust speed)